Time;durP1;ratioP1;P1;durP2;ratioP2;P2;SDS_P1;SDS_P2;PMS_P1;PMS_P2;Temp;Humidity;BMP_temperature;BMP_pressure;BME280_temperature;BME280_humidity;BME280_pressure;Samples;Min_cycle;Max_cycle;Signal;HPM_P1;HPM_P2
2021/07/19 00:01:55;;;;;;;6.43;5.60;;;21.10;45.50;;;;;;5053303;28;20178;-77
2021/07/19 00:04:22;;;;;;;7.13;5.40;;;21.00;46.60;;;;;;5052786;28;20549;-79
2021/07/19 00:06:49;;;;;;;7.03;5.80;;;21.00;48.80;;;;;;5052619;28;20288;-78
2021/07/19 00:09:16;;;;;;;6.30;5.23;;;20.90;51.10;;;;;;5054955;28;20282;-79
2021/07/19 00:11:42;;;;;;;6.53;5.50;;;21.00;49.00;;;;;;5056745;28;20181;-78
2021/07/19 00:14:08;;;;;;;5.73;5.07;;;20.90;50.30;;;;;;5054935;28;20544;-79
2021/07/19 00:16:34;;;;;;;8.47;5.53;;;20.90;50.40;;;;;;5056621;28;20559;-77
2021/07/19 00:19:00;;;;;;;5.87;5.07;;;20.90;49.90;;;;;;5056134;28;20262;-78
2021/07/19 00:21:26;;;;;;;9.47;5.80;;;21.00;50.00;;;;;;5056274;28;20219;-78
2021/07/19 00:23:52;;;;;;;7.07;5.40;;;21.00;50.20;;;;;;5056103;28;20222;-78
2021/07/19 00:26:19;;;;;;;6.80;6.10;;;20.80;52.60;;;;;;5056476;28;20653;-77
2021/07/19 00:28:49;;;;;;;7.30;5.47;;;20.80;55.00;;;;;;5063870;28;20190;-77
2021/07/19 00:31:16;;;;;;;7.90;5.70;;;20.90;53.70;;;;;;5063578;28;20676;-77
2021/07/19 00:33:43;;;;;;;6.20;5.60;;;21.00;52.20;;;;;;5058781;28;20192;-78
2021/07/19 00:36:09;;;;;;;9.20;5.80;;;20.90;52.30;;;;;;5076837;28;20170;-77
2021/07/19 00:38:36;;;;;;;8.07;6.00;;;20.80;55.10;;;;;;5077969;28;20199;-76
2021/07/19 00:41:02;;;;;;;8.63;5.93;;;20.70;57.40;;;;;;5064021;28;20173;-77
2021/07/19 00:43:28;;;;;;;7.97;6.07;;;20.70;57.80;;;;;;5057818;28;20205;-78
2021/07/19 00:45:54;;;;;;;7.87;5.97;;;20.70;58.60;;;;;;5057881;28;20177;-77
2021/07/19 00:48:26;;;;;;;8.83;6.27;;;20.70;58.80;;;;;;5057125;28;20189;-76
2021/07/19 00:51:05;;;;;;;6.63;6.00;;;20.70;58.50;;;;;;5055984;28;20170;-77
2021/07/19 00:53:30;;;;;;;10.57;6.40;;;20.60;59.90;;;;;;5055610;28;20201;-79
2021/07/19 00:55:58;;;;;;;8.87;6.60;;;20.60;61.40;;;;;;5055804;28;20661;-78
2021/07/19 00:58:30;;;;;;;10.17;6.43;;;20.60;62.10;;;;;;5055403;28;20177;-77
2021/07/19 01:00:57;;;;;;;9.50;6.20;;;20.60;62.50;;;;;;5055799;28;20227;-77
2021/07/19 01:03:28;;;;;;;7.10;6.40;;;20.60;60.60;;;;;;5054107;28;20198;-77
2021/07/19 01:05:55;;;;;;;8.67;7.00;;;20.50;61.50;;;;;;5055458;28;20227;-79
2021/07/19 01:08:22;;;;;;;6.93;6.00;;;20.50;64.90;;;;;;5055356;28;20179;-79
2021/07/19 01:10:48;;;;;;;8.57;6.40;;;20.40;65.30;;;;;;5055409;28;20204;-78
2021/07/19 01:13:14;;;;;;;6.57;5.97;;;20.40;65.60;;;;;;5054039;28;20593;-77
2021/07/19 01:15:40;;;;;;;8.57;6.70;;;20.40;65.80;;;;;;5055265;28;20249;-77
2021/07/19 01:18:07;;;;;;;7.70;6.20;;;20.30;67.60;;;;;;5055146;28;20205;-77
2021/07/19 01:21:00;;;;;;;7.57;6.13;;;20.30;68.50;;;;;;5053992;28;20265;-78
2021/07/19 01:23:45;;;;;;;7.83;6.27;;;20.30;68.50;;;;;;5055035;28;20262;-78
2021/07/19 01:26:29;;;;;;;8.03;5.90;;;20.30;66.60;;;;;;5055130;28;20236;-78
2021/07/19 01:28:57;;;;;;;7.43;6.03;;;20.30;66.90;;;;;;5054951;28;20184;-77
2021/07/19 01:31:31;;;;;;;6.83;5.90;;;20.30;69.80;;;;;;5056068;28;20175;-78
2021/07/19 01:34:00;;;;;;;7.27;5.97;;;20.30;66.60;;;;;;5055113;28;20170;-77
2021/07/19 01:36:32;;;;;;;7.90;7.00;;;20.30;67.70;;;;;;5055643;28;20252;-77
2021/07/19 01:38:59;;;;;;;7.40;6.30;;;20.20;69.10;;;;;;5055230;28;20179;-78
2021/07/19 01:41:27;;;;;;;8.90;6.30;;;20.20;68.70;;;;;;5055576;28;20173;-78
2021/07/19 01:43:56;;;;;;;9.77;6.77;;;20.20;67.50;;;;;;5055242;28;20280;-77
2021/07/19 01:46:23;;;;;;;7.03;6.20;;;20.10;71.10;;;;;;5055283;28;20162;-77
2021/07/19 01:48:50;;;;;;;8.30;6.23;;;20.00;74.60;;;;;;5055025;28;20680;-77
2021/07/19 01:51:16;;;;;;;9.10;6.73;;;20.00;74.60;;;;;;5055337;28;20554;-78
2021/07/19 01:53:44;;;;;;;8.30;6.63;;;20.00;74.60;;;;;;5054768;28;20165;-77
2021/07/19 01:56:10;;;;;;;7.27;6.37;;;19.90;75.60;;;;;;5054316;28;20177;-78
2021/07/19 01:58:36;;;;;;;12.73;7.23;;;20.00;76.60;;;;;;5052978;28;20177;-77
2021/07/19 02:01:03;;;;;;;9.17;7.00;;;19.90;75.00;;;;;;5053977;28;20177;-77
2021/07/19 02:03:29;;;;;;;7.60;6.57;;;20.00;75.40;;;;;;5053840;28;20621;-77
2021/07/19 02:05:57;;;;;;;8.07;7.07;;;19.90;75.30;;;;;;5054340;28;20693;-78
2021/07/19 02:08:24;;;;;;;8.17;6.63;;;19.80;77.60;;;;;;5054115;28;20184;-77
2021/07/19 02:10:53;;;;;;;9.87;7.30;;;19.80;77.50;;;;;;5054016;28;20737;-78
2021/07/19 02:13:20;;;;;;;8.57;6.77;;;19.70;76.70;;;;;;5052962;28;20180;-78
2021/07/19 02:15:49;;;;;;;8.70;7.30;;;19.70;79.00;;;;;;5052781;28;20316;-78
2021/07/19 02:18:16;;;;;;;9.07;7.03;;;19.70;80.80;;;;;;5053756;28;20624;-76
2021/07/19 02:20:44;;;;;;;9.20;7.17;;;19.60;81.80;;;;;;5053772;28;20160;-78
2021/07/19 02:23:10;;;;;;;7.73;7.03;;;19.60;80.80;;;;;;5052219;28;20216;-76
2021/07/19 02:25:38;;;;;;;7.30;6.60;;;19.70;81.10;;;;;;5052283;28;20169;-77
2021/07/19 02:28:07;;;;;;;8.57;6.80;;;19.70;79.80;;;;;;5054244;28;20219;-75
2021/07/19 02:30:34;;;;;;;7.47;6.70;;;19.60;79.70;;;;;;5059582;28;20165;-77
2021/07/19 02:32:59;;;;;;;8.20;7.03;;;19.70;79.60;;;;;;5059260;28;20173;-78
2021/07/19 02:35:27;;;;;;;7.70;7.00;;;19.70;78.70;;;;;;5053858;28;20718;-77
2021/07/19 02:37:57;;;;;;;7.83;6.93;;;19.70;77.90;;;;;;5053851;28;20161;-77
2021/07/19 02:40:25;;;;;;;8.97;7.30;;;19.70;80.00;;;;;;5054975;28;20645;-75
2021/07/19 02:43:04;;;;;;;8.90;7.40;;;19.70;78.90;;;;;;5061873;28;20185;-75
2021/07/19 02:45:44;;;;;;;7.97;7.10;;;19.70;79.80;;;;;;5060228;28;20199;-74
2021/07/19 02:48:13;;;;;;;9.50;7.50;;;19.80;76.30;;;;;;5064238;28;20185;-75
2021/07/19 02:50:39;;;;;;;8.67;6.73;;;19.80;75.40;;;;;;5075173;28;20177;-77
2021/07/19 02:53:09;;;;;;;8.43;7.43;;;19.60;79.40;;;;;;5071538;28;20149;-74
2021/07/19 02:55:36;;;;;;;9.67;7.93;;;19.50;80.10;;;;;;5075086;28;20169;-76
2021/07/19 02:58:04;;;;;;;10.30;8.33;;;19.30;83.30;;;;;;5070922;28;20698;-77
2021/07/19 03:00:33;;;;;;;9.93;8.17;;;19.30;84.00;;;;;;5053837;28;20179;-77
2021/07/19 03:03:22;;;;;;;11.87;8.43;;;19.30;86.00;;;;;;5059418;28;20212;-76
2021/07/19 03:06:01;;;;;;;12.63;9.03;;;19.30;86.10;;;;;;5059480;28;20565;-75
2021/07/19 03:08:35;;;;;;;10.20;8.83;;;19.20;87.30;;;;;;5055931;28;20165;-76
2021/07/19 03:11:06;;;;;;;10.23;9.23;;;19.00;88.00;;;;;;5053142;28;20176;-77
2021/07/19 03:13:33;;;;;;;10.83;9.53;;;19.00;90.00;;;;;;5053147;28;20562;-76
2021/07/19 03:16:00;;;;;;;12.13;9.43;;;19.00;90.50;;;;;;5053014;28;20617;-76
2021/07/19 03:18:26;;;;;;;9.77;8.77;;;19.00;90.20;;;;;;5053186;28;20657;-75
2021/07/19 03:20:53;;;;;;;12.30;8.93;;;18.90;91.30;;;;;;5051860;28;20208;-76
2021/07/19 03:23:24;;;;;;;11.13;9.60;;;18.90;91.80;;;;;;5052816;28;20212;-76
2021/07/19 03:25:52;;;;;;;14.20;9.80;;;18.80;92.60;;;;;;5051770;28;20177;-76
2021/07/19 03:28:20;;;;;;;13.33;10.23;;;18.80;93.00;;;;;;5051353;28;20173;-76
2021/07/19 03:30:48;;;;;;;12.17;9.87;;;18.70;93.20;;;;;;5051487;28;20264;-76
2021/07/19 03:33:15;;;;;;;9.90;8.87;;;18.80;93.40;;;;;;5052714;28;20172;-76
2021/07/19 03:35:43;;;;;;;11.60;9.77;;;18.70;93.50;;;;;;5052898;28;20622;-76
2021/07/19 03:38:12;;;;;;;13.10;10.10;;;18.80;93.40;;;;;;5053045;28;20193;-77
2021/07/19 03:40:38;;;;;;;14.20;10.07;;;18.80;93.40;;;;;;5050722;28;20184;-75
2021/07/19 03:43:04;;;;;;;11.80;10.43;;;18.70;93.90;;;;;;5053258;28;20209;-78
2021/07/19 03:45:30;;;;;;;12.10;9.83;;;18.60;94.40;;;;;;5056568;28;20193;-76
2021/07/19 03:47:56;;;;;;;13.07;10.17;;;18.60;94.20;;;;;;5056744;28;20649;-76
2021/07/19 03:50:23;;;;;;;11.67;9.73;;;18.60;94.60;;;;;;5056902;28;20172;-77
2021/07/19 03:52:51;;;;;;;10.87;9.00;;;18.60;94.90;;;;;;5055331;28;20181;-76
2021/07/19 03:55:17;;;;;;;12.17;9.63;;;18.60;95.50;;;;;;5056962;28;20165;-76
2021/07/19 03:57:44;;;;;;;10.43;9.33;;;18.60;95.40;;;;;;5056422;28;20244;-77
2021/07/19 04:00:12;;;;;;;12.57;9.63;;;18.50;96.00;;;;;;5056458;28;20222;-76
2021/07/19 04:02:40;;;;;;;11.10;9.87;;;18.50;96.00;;;;;;5055025;28;20189;-77
2021/07/19 04:05:07;;;;;;;13.20;9.77;;;18.50;96.20;;;;;;5056341;28;20230;-76
2021/07/19 04:07:37;;;;;;;13.17;9.87;;;18.50;96.30;;;;;;5056334;28;20165;-77
2021/07/19 04:10:11;;;;;;;10.97;9.50;;;18.50;96.20;;;;;;5056042;28;20176;-77
2021/07/19 04:12:44;;;;;;;15.13;10.40;;;18.60;95.70;;;;;;5056000;28;20161;-77
2021/07/19 04:15:10;;;;;;;11.13;9.50;;;18.60;95.70;;;;;;5056749;28;20176;-77
2021/07/19 04:17:36;;;;;;;11.00;9.60;;;18.50;96.40;;;;;;5056708;28;20165;-76
2021/07/19 04:20:05;;;;;;;13.50;10.80;;;18.40;96.70;;;;;;5056813;28;20501;-77
2021/07/19 04:22:31;;;;;;;13.70;10.37;;;18.40;97.00;;;;;;5055845;28;20197;-77
2021/07/19 04:24:57;;;;;;;12.53;9.67;;;18.50;97.10;;;;;;5056101;28;20199;-76
2021/07/19 04:27:24;;;;;;;13.47;10.07;;;18.40;97.10;;;;;;5056604;28;20215;-75
2021/07/19 04:29:51;;;;;;;12.30;10.13;;;18.30;97.70;;;;;;5059820;28;20173;-76
2021/07/19 04:32:21;;;;;;;11.97;9.53;;;18.30;97.90;;;;;;5058301;28;20181;-76
2021/07/19 04:34:48;;;;;;;12.63;9.90;;;18.40;97.90;;;;;;5055521;28;20307;-76
2021/07/19 04:37:14;;;;;;;12.37;10.30;;;18.40;97.80;;;;;;5056068;28;20665;-76
2021/07/19 04:39:41;;;;;;;14.13;9.93;;;18.50;97.80;;;;;;5054518;28;20612;-76
2021/07/19 04:42:08;;;;;;;12.83;9.67;;;18.50;97.60;;;;;;5055223;28;20173;-77
2021/07/19 04:44:34;;;;;;;12.77;10.23;;;18.60;97.40;;;;;;5055702;28;20316;-76
2021/07/19 04:47:00;;;;;;;12.33;10.67;;;18.60;97.40;;;;;;5056033;28;20177;-76
2021/07/19 04:49:27;;;;;;;11.93;9.70;;;18.60;97.40;;;;;;5070356;28;20193;-75
2021/07/19 04:51:53;;;;;;;13.33;10.83;;;18.60;97.10;;;;;;5075778;28;20192;-76
2021/07/19 04:54:28;;;;;;;13.97;9.73;;;18.60;97.10;;;;;;5064504;28;20176;-76
2021/07/19 04:56:58;;;;;;;11.47;10.23;;;18.50;97.80;;;;;;5069454;28;20176;-76
2021/07/19 04:59:27;;;;;;;13.70;10.50;;;18.50;98.10;;;;;;5056723;28;20175;-76
2021/07/19 05:01:55;;;;;;;13.50;10.37;;;18.40;98.20;;;;;;5055575;28;20263;-77
2021/07/19 05:04:24;;;;;;;14.20;10.73;;;18.40;98.30;;;;;;5055744;28;20661;-77
2021/07/19 05:06:58;;;;;;;13.33;10.00;;;18.50;98.50;;;;;;5055865;28;20149;-77
2021/07/19 05:09:25;;;;;;;13.73;10.77;;;18.40;98.40;;;;;;5055085;28;20169;-78
2021/07/19 05:11:52;;;;;;;13.33;11.23;;;18.50;99.00;;;;;;5053572;28;20203;-77
2021/07/19 05:14:18;;;;;;;12.97;10.87;;;18.40;98.40;;;;;;5054889;28;20177;-78
2021/07/19 05:16:45;;;;;;;18.27;12.00;;;18.40;98.60;;;;;;5054452;28;20210;-77
2021/07/19 05:19:12;;;;;;;15.77;11.23;;;18.50;98.90;;;;;;5055150;28;20174;-77
2021/07/19 05:21:39;;;;;;;14.20;11.07;;;18.50;98.60;;;;;;5055052;28;20165;-77
2021/07/19 05:24:05;;;;;;;16.13;10.80;;;18.50;98.70;;;;;;5054794;28;20217;-77
2021/07/19 05:26:32;;;;;;;15.17;11.27;;;18.50;98.60;;;;;;5054617;28;20172;-76
2021/07/19 05:28:59;;;;;;;12.67;11.37;;;18.50;98.70;;;;;;5054617;28;20177;-76
2021/07/19 05:31:25;;;;;;;14.57;11.63;;;18.50;98.70;;;;;;5054782;28;20560;-76
2021/07/19 05:33:52;;;;;;;15.77;11.43;;;18.50;98.60;;;;;;5054492;28;20180;-79
2021/07/19 05:36:17;;;;;;;13.47;12.07;;;18.60;98.70;;;;;;5054766;28;20307;-79
2021/07/19 05:38:43;;;;;;;14.30;10.93;;;18.70;98.40;;;;;;5054627;28;20533;-79
2021/07/19 05:41:10;;;;;;;15.03;11.60;;;18.60;97.90;;;;;;5054167;28;20169;-76
2021/07/19 05:43:36;;;;;;;15.93;11.77;;;18.70;97.90;;;;;;5054150;28;20193;-77
2021/07/19 05:46:03;;;;;;;15.43;11.60;;;18.80;97.90;;;;;;5054207;28;20193;-78
2021/07/19 05:48:28;;;;;;;18.40;12.27;;;18.90;97.40;;;;;;5053982;28;20185;-78
2021/07/19 05:50:55;;;;;;;13.63;11.27;;;19.00;96.80;;;;;;5054301;28;20591;-78
2021/07/19 05:53:21;;;;;;;14.47;12.00;;;19.10;96.20;;;;;;5054286;28;20161;-75
2021/07/19 05:55:48;;;;;;;12.57;10.83;;;19.20;96.30;;;;;;5053980;28;20181;-78
2021/07/19 05:58:15;;;;;;;14.43;11.23;;;19.30;95.10;;;;;;5053917;28;20162;-81
2021/07/19 06:00:41;;;;;;;14.90;12.10;;;19.40;93.40;;;;;;5054017;28;20215;-77
2021/07/19 06:03:07;;;;;;;16.17;11.90;;;19.30;92.90;;;;;;5054377;28;20204;-77
2021/07/19 06:05:33;;;;;;;15.33;11.73;;;19.20;93.60;;;;;;5054675;28;20178;-78
2021/07/19 06:07:58;;;;;;;15.30;11.87;;;19.30;93.80;;;;;;5054000;28;20166;-78
2021/07/19 06:10:26;;;;;;;13.87;11.67;;;19.40;93.30;;;;;;5053795;28;20172;-77
2021/07/19 06:12:52;;;;;;;15.23;12.30;;;19.60;92.60;;;;;;5054008;28;20216;-76
2021/07/19 06:15:20;;;;;;;13.97;11.60;;;19.60;91.20;;;;;;5053975;28;20208;-80
2021/07/19 06:17:46;;;;;;;13.03;11.33;;;19.70;90.70;;;;;;5053968;28;20165;-78
2021/07/19 06:20:20;;;;;;;14.87;11.37;;;19.60;91.00;;;;;;5053915;28;20172;-78
2021/07/19 06:22:47;;;;;;;17.20;10.97;;;19.50;90.30;;;;;;5053629;28;20167;-78
2021/07/19 06:25:14;;;;;;;15.20;11.33;;;19.60;91.40;;;;;;5053325;28;20169;-78
2021/07/19 06:27:42;;;;;;;14.07;10.33;;;19.70;90.20;;;;;;5053709;28;20617;-77
2021/07/19 06:30:13;;;;;;;16.30;11.10;;;19.80;89.80;;;;;;5053920;28;20214;-77
2021/07/19 06:32:39;;;;;;;13.83;10.73;;;19.90;88.90;;;;;;5053688;28;20172;-77
2021/07/19 06:35:06;;;;;;;12.07;10.70;;;20.00;84.30;;;;;;5053872;28;20177;-78
2021/07/19 06:37:35;;;;;;;12.17;9.53;;;20.10;81.90;;;;;;5052647;28;20179;-77
2021/07/19 06:40:03;;;;;;;14.57;10.80;;;20.00;78.80;;;;;;5054480;28;20541;-77
2021/07/19 06:42:29;;;;;;;13.47;10.60;;;20.00;78.60;;;;;;5054105;28;20192;-77
2021/07/19 06:44:59;;;;;;;11.90;9.90;;;20.00;77.60;;;;;;5054861;28;20251;-80
2021/07/19 06:47:26;;;;;;;13.10;10.50;;;20.00;77.80;;;;;;5054827;28;20252;-78
2021/07/19 06:49:54;;;;;;;12.30;9.73;;;20.00;78.40;;;;;;5054118;28;20660;-78
2021/07/19 06:52:20;;;;;;;12.57;10.07;;;19.90;79.50;;;;;;5053740;28;20175;-79
2021/07/19 06:54:46;;;;;;;15.17;10.53;;;19.80;79.60;;;;;;5053811;28;20684;-81
2021/07/19 06:57:12;;;;;;;13.43;10.67;;;19.90;81.40;;;;;;5052848;28;20173;-79
2021/07/19 06:59:38;;;;;;;10.77;9.23;;;19.90;81.80;;;;;;5054703;28;20165;-79
2021/07/19 07:02:04;;;;;;;11.03;9.23;;;19.80;81.10;;;;;;5052905;28;20839;-79
2021/07/19 07:04:30;;;;;;;12.87;9.90;;;19.80;82.10;;;;;;5054637;28;20213;-78
2021/07/19 07:06:56;;;;;;;13.63;9.63;;;20.00;78.50;;;;;;5053955;28;20208;-80
2021/07/19 07:09:23;;;;;;;13.73;10.17;;;20.10;78.00;;;;;;5058784;28;20184;-79
2021/07/19 07:11:48;;;;;;;14.50;10.17;;;20.10;76.90;;;;;;5059813;28;20176;-79
2021/07/19 07:14:14;;;;;;;13.60;9.60;;;20.20;75.20;;;;;;5055265;28;20165;-79
2021/07/19 07:16:41;;;;;;;13.13;9.27;;;20.20;72.30;;;;;;5053962;28;20660;-80
2021/07/19 07:19:09;;;;;;;11.53;9.37;;;20.20;71.30;;;;;;5053288;28;20173;-78
2021/07/19 07:21:35;;;;;;;12.10;8.90;;;20.20;66.50;;;;;;5053898;28;20179;-80
2021/07/19 07:24:02;;;;;;;10.97;8.60;;;20.30;71.50;;;;;;5054855;28;20213;-79
2021/07/19 07:26:28;;;;;;;12.80;9.20;;;20.50;67.30;;;;;;5055608;28;20906;-78
2021/07/19 07:28:54;;;;;;;13.10;8.27;;;20.60;58.30;;;;;;5055011;28;20222;-76
2021/07/19 07:31:25;;;;;;;13.47;9.40;;;20.50;60.40;;;;;;5057963;28;20618;-80
2021/07/19 07:33:53;;;;;;;14.37;9.50;;;20.50;58.90;;;;;;5057920;28;20173;-80
2021/07/19 07:36:19;;;;;;;13.70;9.47;;;20.50;59.90;;;;;;5051579;28;20180;-80
2021/07/19 07:38:46;;;;;;;12.10;9.47;;;20.50;58.00;;;;;;5055931;28;20181;-77
2021/07/19 07:41:12;;;;;;;10.27;8.63;;;20.60;58.60;;;;;;5076028;28;20173;-80
2021/07/19 07:43:37;;;;;;;10.33;8.83;;;20.60;59.00;;;;;;5077199;28;20222;-80
2021/07/19 07:46:03;;;;;;;12.40;8.80;;;20.70;57.10;;;;;;5092573;28;20208;-82
2021/07/19 07:48:32;;;;;;;13.20;8.73;;;20.80;51.70;;;;;;5087489;28;20656;-80
2021/07/19 07:50:59;;;;;;;10.93;8.40;;;20.90;46.60;;;;;;5074066;28;20228;-79
2021/07/19 07:53:24;;;;;;;10.20;8.27;;;20.90;45.00;;;;;;5072976;28;20283;-81
2021/07/19 07:55:50;;;;;;;12.43;8.50;;;20.90;51.10;;;;;;5074939;28;20176;-79
2021/07/19 07:58:16;;;;;;;12.13;7.77;;;21.00;47.10;;;;;;5071782;28;20618;-78
2021/07/19 08:00:42;;;;;;;10.10;7.37;;;21.10;38.90;;;;;;5074164;28;20174;-80
2021/07/19 08:03:08;;;;;;;11.03;7.23;;;21.20;30.80;;;;;;5073408;28;20658;-82
2021/07/19 08:05:34;;;;;;;10.50;6.87;;;21.30;29.50;;;;;;5078097;28;20181;-78
2021/07/19 08:07:59;;;;;;;7.57;5.97;;;21.40;27.30;;;;;;5079395;28;20181;-79
2021/07/19 08:10:25;;;;;;;7.67;5.43;;;21.50;29.00;;;;;;5073021;28;20233;-81
2021/07/19 08:12:52;;;;;;;9.13;6.00;;;21.60;20.50;;;;;;5071808;28;20190;-79
2021/07/19 08:15:18;;;;;;;8.87;5.80;;;21.60;18.40;;;;;;5071279;28;20228;-80
2021/07/19 08:17:44;;;;;;;11.90;6.20;;;21.70;16.30;;;;;;5071114;28;20178;-80
2021/07/19 08:20:11;;;;;;;7.00;5.50;;;21.70;19.00;;;;;;5072171;28;20170;-80
2021/07/19 08:22:37;;;;;;;5.27;4.20;;;21.70;7.10;;;;;;5072456;28;20170;-79
2021/07/19 08:25:04;;;;;;;5.77;4.87;;;21.70;1.00;;;;;;5071579;28;20186;-79
2021/07/19 08:27:32;;;;;;;9.13;5.37;;;21.60;1.00;;;;;;5072994;28;20239;-77
2021/07/19 08:29:58;;;;;;;7.63;4.70;;;21.70;7.80;;;;;;5074862;28;20178;-78
2021/07/19 08:32:24;;;;;;;8.40;4.80;;;21.90;8.50;;;;;;5076791;28;20170;-79
2021/07/19 08:34:49;;;;;;;8.27;5.20;;;22.00;1.00;;;;;;5076749;28;20177;-82
2021/07/19 08:37:15;;;;;;;6.47;4.60;;;22.00;1.00;;;;;;5077116;28;20681;-80
2021/07/19 08:39:42;;;;;;;6.47;4.17;;;22.00;1.00;;;;;;5075475;28;20533;-80
2021/07/19 08:42:11;;;;;;;7.20;5.00;;;22.00;1.00;;;;;;5087074;28;20175;-80
2021/07/19 08:44:37;;;;;;;5.63;5.00;;;22.00;1.00;;;;;;5097828;28;20212;-81
2021/07/19 08:47:10;;;;;;;7.60;5.57;;;22.00;1.00;;;;;;5098088;28;20225;-78
2021/07/19 08:49:36;;;;;;;10.00;5.80;;;21.90;1.00;;;;;;5073001;28;20195;-79
2021/07/19 08:52:05;;;;;;;9.67;5.37;;;21.90;1.00;;;;;;5075359;28;20177;-79
2021/07/19 08:54:36;;;;;;;6.60;4.83;;;22.00;1.00;;;;;;5079004;28;20172;-80
2021/07/19 08:57:04;;;;;;;7.47;4.87;;;22.10;1.00;;;;;;5057424;28;20206;-79
2021/07/19 08:59:32;;;;;;;7.10;4.50;;;22.20;1.00;;;;;;5056812;28;20163;-79
2021/07/19 09:02:01;;;;;;;9.07;4.73;;;22.20;1.00;;;;;;5060397;28;20175;-79
2021/07/19 09:04:27;;;;;;;9.10;5.03;;;22.20;1.00;;;;;;5068587;28;20215;-78
2021/07/19 09:06:54;;;;;;;7.27;4.47;;;22.20;1.00;;;;;;5073030;28;20179;-81
2021/07/19 09:09:30;;;;;;;7.63;5.23;;;22.30;1.00;;;;;;5067747;28;20213;-77
2021/07/19 09:12:00;;;;;;;5.97;4.50;;;22.30;1.00;;;;;;5077137;28;20545;-80
2021/07/19 09:14:26;;;;;;;6.03;4.80;;;22.20;1.00;;;;;;5064746;28;20176;-80
2021/07/19 09:16:53;;;;;;;9.40;5.17;;;22.40;1.00;;;;;;5060414;28;20189;-80
2021/07/19 09:19:21;;;;;;;6.43;3.93;;;22.50;1.00;;;;;;5086507;28;20647;-80
2021/07/19 09:21:55;;;;;;;8.33;3.87;;;22.40;1.00;;;;;;5074418;28;20716;-78
2021/07/19 09:24:25;;;;;;;7.20;4.50;;;22.30;1.00;;;;;;5075313;28;20206;-80
2021/07/19 09:26:52;;;;;;;6.70;4.77;;;22.40;1.00;;;;;;5075589;28;20171;-80
2021/07/19 09:29:20;;;;;;;8.40;5.00;;;22.50;1.00;;;;;;5075148;28;20168;-79
2021/07/19 09:31:57;;;;;;;6.67;4.87;;;22.40;1.00;;;;;;5074635;28;20163;-80
2021/07/19 09:34:28;;;;;;;7.30;5.00;;;22.30;1.00;;;;;;5075222;28;20174;-81
2021/07/19 09:37:07;;;;;;;8.10;4.37;;;22.40;1.00;;;;;;5093689;28;20187;-79
2021/07/19 09:39:43;;;;;;;6.27;4.23;;;22.60;1.00;;;;;;5094897;28;20199;-78
2021/07/19 09:42:10;;;;;;;6.60;4.30;;;22.60;1.00;;;;;;5093768;28;20254;-80
2021/07/19 09:44:37;;;;;;;7.30;4.47;;;22.60;1.00;;;;;;5094752;28;20629;-80
2021/07/19 09:47:06;;;;;;;7.33;4.10;;;22.80;1.00;;;;;;5087546;28;20178;-79
2021/07/19 09:49:33;;;;;;;6.03;3.90;;;22.90;1.00;;;;;;5070363;28;20254;-80
2021/07/19 09:52:08;;;;;;;7.07;4.10;;;23.10;1.00;;;;;;5087623;28;20207;-79
2021/07/19 09:54:40;;;;;;;6.77;4.00;;;23.10;1.00;;;;;;5073599;28;20171;-79
2021/07/19 09:57:06;;;;;;;7.67;4.23;;;23.10;1.00;;;;;;5082456;28;20284;-79
2021/07/19 09:59:35;;;;;;;8.20;3.93;;;23.00;1.00;;;;;;5094687;28;20174;-80
2021/07/19 10:02:01;;;;;;;6.80;4.13;;;23.00;1.00;;;;;;5092997;28;20182;-79
2021/07/19 10:04:27;;;;;;;6.43;3.97;;;23.00;1.00;;;;;;5074085;28;20207;-79
2021/07/19 10:06:54;;;;;;;6.73;4.20;;;23.20;1.00;;;;;;5074269;28;20164;-79
2021/07/19 10:09:21;;;;;;;4.87;3.63;;;23.20;99.90;;;;;;5073515;28;20176;-80
2021/07/19 10:11:52;;;;;;;6.07;4.20;;;23.20;99.90;;;;;;5072405;28;20184;-80
2021/07/19 10:14:33;;;;;;;6.47;4.17;;;23.00;99.90;;;;;;5077177;28;20568;-81
2021/07/19 10:16:59;;;;;;;5.40;3.80;;;23.00;1.00;;;;;;5076171;28;20175;-80
2021/07/19 10:19:27;;;;;;;5.60;3.77;;;23.10;1.00;;;;;;5075235;28;20183;-80
2021/07/19 10:21:53;;;;;;;5.27;3.80;;;23.20;99.90;;;;;;5075162;28;20179;-80
2021/07/19 10:24:20;;;;;;;7.63;4.30;;;23.10;99.90;;;;;;5075750;28;20215;-79
2021/07/19 10:26:47;;;;;;;5.70;3.90;;;23.20;1.00;;;;;;5076555;28;20636;-82
2021/07/19 10:29:15;;;;;;;6.73;3.97;;;23.30;1.00;;;;;;5078416;28;20255;-80
2021/07/19 10:31:40;;;;;;;7.60;4.17;;;23.50;1.00;;;;;;5074364;28;20178;-81
2021/07/19 10:34:07;;;;;;;5.43;3.80;;;23.40;99.90;;;;;;5057017;28;20264;-80
2021/07/19 10:36:51;;;;;;;6.63;4.40;;;23.40;99.90;;;;;;5060841;28;20180;-82
2021/07/19 10:39:22;;;;;;;6.93;4.20;;;23.40;21.70;;;;;;5073938;28;20192;-81
2021/07/19 10:42:03;;;;;;;5.63;4.30;;;23.30;99.90;;;;;;5073866;28;20206;-80
2021/07/19 10:44:33;;;;;;;5.53;4.70;;;23.30;99.90;;;;;;5073693;28;20207;-79
2021/07/19 10:47:22;;;;;;;6.33;3.80;;;23.20;99.90;;;;;;5078177;28;20171;-79
2021/07/19 10:49:55;;;;;;;7.97;4.47;;;23.50;99.90;;;;;;5073375;28;20645;-79
2021/07/19 10:52:32;;;;;;;5.70;4.10;;;23.50;1.00;;;;;;5068482;28;20172;-80
2021/07/19 10:54:59;;;;;;;6.57;4.60;;;23.50;1.00;;;;;;5054046;28;20172;-80
2021/07/19 10:57:39;;;;;;;4.83;4.20;;;23.60;1.00;;;;;;5052031;28;20215;-80
2021/07/19 11:00:19;;;;;;;5.40;4.60;;;23.70;1.00;;;;;;5053315;28;20648;-81
2021/07/19 11:02:45;;;;;;;5.37;4.07;;;23.70;99.90;;;;;;5052889;28;20206;-79
2021/07/19 11:05:13;;;;;;;5.90;4.23;;;23.70;1.00;;;;;;5053128;28;20181;-80
2021/07/19 11:07:40;;;;;;;6.67;4.73;;;23.50;1.00;;;;;;5053572;28;20160;-81
2021/07/19 11:10:24;;;;;;;6.87;4.60;;;23.60;1.00;;;;;;5064466;28;20172;-80
2021/07/19 11:12:56;;;;;;;6.77;4.43;;;23.60;99.90;;;;;;5073796;28;20521;-80
2021/07/19 11:15:33;;;;;;;5.87;4.53;;;23.50;99.90;;;;;;5076201;28;20171;-80
2021/07/19 11:17:58;;;;;;;6.40;4.90;;;23.50;1.00;;;;;;5074460;28;20178;-80
2021/07/19 11:20:24;;;;;;;6.70;5.10;;;23.70;1.00;;;;;;5077737;28;20164;-82
2021/07/19 11:23:00;;;;;;;6.33;4.67;;;23.70;1.00;;;;;;5073547;28;20203;-81
2021/07/19 11:25:36;;;;;;;5.73;4.60;;;23.80;99.90;;;;;;5073605;28;20168;-79
2021/07/19 11:28:18;;;;;;;5.77;4.20;;;24.00;1.00;;;;;;5073126;28;20197;-80
2021/07/19 11:31:05;;;;;;;7.10;5.07;;;24.10;99.90;;;;;;5075348;28;20179;-80
2021/07/19 11:33:37;;;;;;;7.03;5.07;;;24.10;99.90;;;;;;5073542;28;20164;-80
2021/07/19 11:36:14;;;;;;;7.37;4.67;;;24.20;1.00;;;;;;5073256;28;20252;-80
2021/07/19 11:38:40;;;;;;;6.10;4.50;;;24.40;1.00;;;;;;5072646;28;20160;-80
2021/07/19 11:41:40;;;;;;;6.30;4.97;;;24.40;1.00;;;;;;5072865;28;20513;-80
2021/07/19 11:44:05;;;;;;;7.10;5.33;;;24.20;1.00;;;;;;5071152;28;20225;-81
2021/07/19 11:46:32;;;;;;;8.17;4.93;;;24.20;44.70;;;;;;5072915;28;20173;-81
2021/07/19 11:49:09;;;;;;;6.37;4.93;;;24.30;1.00;;;;;;5070599;28;20181;-79
2021/07/19 11:51:37;;;;;;;7.47;5.00;;;24.50;99.90;;;;;;5064072;28;20175;-80
2021/07/19 11:54:03;;;;;;;7.57;4.83;;;24.60;99.90;;;;;;5061285;28;20192;-80
2021/07/19 11:56:30;;;;;;;7.67;4.80;;;24.70;99.90;;;;;;5061212;28;20204;-80
2021/07/19 11:59:01;;;;;;;7.03;5.00;;;24.60;1.00;;;;;;5081970;28;20190;-81
2021/07/19 12:01:32;;;;;;;7.27;5.23;;;24.70;1.00;;;;;;5070759;28;20308;-80
2021/07/19 12:04:00;;;;;;;8.17;5.13;;;24.70;1.00;;;;;;5053014;28;20203;-80
2021/07/19 12:06:27;;;;;;;8.83;5.57;;;25.00;99.90;;;;;;5062441;28;20177;-80
2021/07/19 12:08:56;;;;;;;8.17;5.67;;;24.80;1.00;;;;;;5070099;28;20230;-78
2021/07/19 12:11:23;;;;;;;10.40;5.07;;;24.60;1.00;;;;;;5075904;28;20252;-80
2021/07/19 12:13:49;;;;;;;9.63;5.30;;;24.50;1.00;;;;;;5067368;28;20195;-77
2021/07/19 12:16:15;;;;;;;7.97;5.57;;;24.70;1.00;;;;;;5057722;28;20174;-80
2021/07/19 12:18:48;;;;;;;7.37;4.93;;;25.00;1.00;;;;;;5076714;28;20168;-78
2021/07/19 12:21:31;;;;;;;6.33;4.83;;;25.30;1.00;;;;;;5095832;28;20183;-82
2021/07/19 12:23:59;;;;;;;9.97;5.23;;;25.20;99.90;;;;;;5096637;28;20218;-77
2021/07/19 12:26:31;;;;;;;9.37;5.40;;;25.10;99.90;;;;;;5096449;28;20523;-78
2021/07/19 12:28:57;;;;;;;7.43;5.33;;;25.00;1.00;;;;;;5084514;28;20195;-79
2021/07/19 12:31:43;;;;;;;7.37;5.20;;;24.80;99.90;;;;;;5065894;28;20199;-80
2021/07/19 12:34:12;;;;;;;5.83;5.23;;;25.00;1.00;;;;;;5068806;28;20168;-80
2021/07/19 12:37:00;;;;;;;8.70;5.50;;;25.20;99.90;;;;;;5080304;28;20174;-80
2021/07/19 12:39:47;;;;;;;6.80;5.43;;;25.10;99.90;;;;;;5055939;28;20186;-80
2021/07/19 12:42:16;;;;;;;9.57;5.43;;;24.80;99.90;;;;;;5055526;28;20248;-79
2021/07/19 12:45:04;;;;;;;7.37;5.47;;;24.70;31.10;;;;;;5066611;28;20206;-78
2021/07/19 12:47:30;;;;;;;9.13;5.47;;;24.80;1.00;;;;;;5056041;28;20237;-80
2021/07/19 12:50:02;;;;;;;8.10;5.97;;;24.90;1.00;;;;;;5069922;28;20189;-79
2021/07/19 12:52:33;;;;;;;7.00;5.73;;;24.90;1.00;;;;;;5085725;28;20549;-79